Vernon Center, Minnesota
Current Conditions -  °F | °C
As of 1:55 PM on Saturday 25 Oct 2014 (Local Time) from KJYG Reporting Station
Clear Clear  
Wind Chill: 64°   Ceiling: Unl
Heat Index: 64°   Visibility: 10mi
Dew Point: 25°   Wind: 14mph
Humidity: 22%   Direction: 310°NW
Pressure: 30.11"   Gusts: 21mph
Location:  43.96°N, 94.17°W
Report Text: KJYG 251855Z AUTO 31012G18KT 10SM CLR 18/M04 A3011 RMK AO2
Loading
Personal Weather Stations






























Interactive Weather Map
Tropical Storm Tracking
New forecast layout! Learn more

10-Day Weather Forecast

Advertisements
Track Severe Weather on mobile